createdAt,value
2023-01-23T00:01:00.452Z,18.73
2023-01-23T00:03:48.209Z,22.55
2023-01-23T00:06:35.944Z,22.92
2023-01-23T00:09:25.444Z,20.25
2023-01-23T00:12:13.177Z,23.85
2023-01-23T00:15:00.809Z,21.40
2023-01-23T00:17:48.544Z,22.33
2023-01-23T00:20:38.534Z,23.48
2023-01-23T00:23:26.474Z,22.63
2023-01-23T00:26:19.456Z,21.52
2023-01-23T00:29:07.465Z,24.20
2023-01-23T00:31:55.064Z,23.77
2023-01-23T00:34:43.296Z,22.48
2023-01-23T00:37:31.046Z,24.75
2023-01-23T00:40:18.880Z,25.75
2023-01-23T00:43:08.198Z,22.70
2023-01-23T00:45:56.336Z,23.90
2023-01-23T00:48:44.182Z,24.10
2023-01-23T00:51:33.455Z,22.80
2023-01-23T00:54:21.719Z,23.63
2023-01-23T00:57:09.796Z,22.95
2023-01-23T00:59:58.718Z,25.95
2023-01-23T01:02:46.592Z,24.10
2023-01-23T01:05:35.202Z,24.70
2023-01-23T01:08:23.947Z,27.02
2023-01-23T01:11:11.683Z,25.38
2023-01-23T01:13:59.357Z,24.50
2023-01-23T01:16:48.282Z,25.48
2023-01-23T01:19:35.568Z,26.08
2023-01-23T01:22:22.940Z,24.17
2023-01-23T01:25:11.464Z,26.52
2023-01-23T01:27:59.230Z,24.77
2023-01-23T01:30:46.596Z,23.38
2023-01-23T01:33:36.484Z,24.20
2023-01-23T01:36:25.402Z,27.65
2023-01-23T01:39:13.034Z,23.67
2023-01-23T01:42:02.415Z,26.38
2023-01-23T01:44:56.026Z,24.88
2023-01-23T01:47:43.935Z,24.90
2023-01-23T01:50:35.373Z,28.42
2023-01-23T01:53:24.547Z,28.30
2023-01-23T01:56:14.319Z,25.83
2023-01-23T01:59:02.995Z,29.55
2023-01-23T02:02:05.655Z,29.08
2023-01-23T02:04:56.709Z,26.10
2023-01-23T02:07:50.240Z,26.63
2023-01-23T02:10:38.558Z,26.60
2023-01-23T02:13:32.492Z,24.33
2023-01-23T02:16:26.348Z,27.50
2023-01-23T02:19:27.565Z,24.92
2023-01-23T02:22:29.951Z,25.45
2023-01-23T02:25:28.129Z,26.17
2023-01-23T02:28:18.306Z,24.17
2023-01-23T02:31:08.077Z,27.10
2023-01-23T02:33:57.786Z,23.65
2023-01-23T02:36:48.849Z,25.30
2023-01-23T02:39:37.211Z,27.25
2023-01-23T02:42:26.408Z,25.65
2023-01-23T02:45:15.692Z,22.05
2023-01-23T02:48:03.261Z,25.92
2023-01-23T02:50:51.049Z,22.27
2023-01-23T02:53:39.433Z,23.52
2023-01-23T02:56:27.253Z,23.70
2023-01-23T02:59:32.163Z,30.13
2023-01-23T03:02:21.151Z,27.45
2023-01-23T03:05:09.797Z,26.80
2023-01-23T03:07:58.262Z,24.88
2023-01-23T03:10:45.900Z,28.25
2023-01-23T03:13:33.419Z,25.92
2023-01-23T03:16:21.051Z,24.50
2023-01-23T03:19:11.077Z,28.50
2023-01-23T03:21:59.485Z,27.10
2023-01-23T03:24:47.289Z,26.77
2023-01-23T03:27:36.709Z,27.25
2023-01-23T03:30:25.711Z,28.67
2023-01-23T03:33:13.429Z,25.45
2023-01-23T03:36:02.648Z,27.13
2023-01-23T03:39:07.697Z,30.48
2023-01-23T03:41:55.683Z,28.70
2023-01-23T03:44:46.056Z,26.45
2023-01-23T03:47:33.809Z,29.45
2023-01-23T03:50:21.454Z,26.13
2023-01-23T03:53:11.087Z,29.15
2023-01-23T03:55:58.783Z,25.33
2023-01-23T03:58:46.536Z,22.45
2023-01-23T04:01:34.132Z,24.50
2023-01-23T04:04:21.498Z,26.98
2023-01-23T04:07:09.545Z,27.58
2023-01-23T04:10:01.282Z,29.30
2023-01-23T04:12:49.473Z,22.95
2023-01-23T04:15:37.359Z,24.70
2023-01-23T04:18:27.791Z,23.25
2023-01-23T04:21:15.610Z,22.42
2023-01-23T04:24:03.063Z,31.23
2023-01-23T04:26:52.096Z,26.40
2023-01-23T04:29:39.740Z,28.02
2023-01-23T04:32:28.835Z,23.90
2023-01-23T04:35:17.739Z,24.88
2023-01-23T04:38:06.277Z,23.40
2023-01-23T04:40:56.365Z,23.83
2023-01-23T04:43:45.675Z,22.20
2023-01-23T04:46:33.667Z,24.77
2023-01-23T04:49:27.763Z,27.80
2023-01-23T04:52:15.358Z,25.58
2023-01-23T04:58:00.338Z,25.60
2023-01-23T05:00:51.778Z,26.92
2023-01-23T05:03:45.972Z,25.95
2023-01-23T05:06:34.557Z,23.42
2023-01-23T05:09:22.251Z,25.90
2023-01-23T05:12:13.008Z,26.13
2023-01-23T05:15:00.976Z,22.77
2023-01-23T05:17:50.480Z,24.63
2023-01-23T05:20:38.572Z,23.33
2023-01-23T05:23:26.116Z,25.67
2023-01-23T05:26:15.261Z,27.17
2023-01-23T05:29:02.915Z,29.27
2023-01-23T05:31:51.787Z,30.00
2023-01-23T05:35:13.638Z,27.13
2023-01-23T05:38:03.392Z,25.60
2023-01-23T05:40:52.756Z,23.40
2023-01-23T05:44:03.365Z,21.88
2023-01-23T05:47:00.540Z,21.67
2023-01-23T05:49:48.354Z,23.95
2023-01-23T05:52:38.092Z,23.33
2023-01-23T05:55:26.868Z,21.20
2023-01-23T05:58:16.176Z,19.00
2023-01-23T06:01:19.494Z,22.70
2023-01-23T06:04:26.134Z,24.50
2023-01-23T06:07:26.210Z,23.33
2023-01-23T06:10:18.907Z,20.88
2023-01-23T06:13:06.572Z,20.33
2023-01-23T06:15:56.908Z,26.52
2023-01-23T06:18:46.255Z,26.10
2023-01-23T06:21:35.024Z,27.83
2023-01-23T06:24:23.063Z,23.63
2023-01-23T06:27:12.475Z,26.73
2023-01-23T06:30:00.016Z,24.15
2023-01-23T06:32:48.230Z,25.05
2023-01-23T06:35:40.038Z,22.63
2023-01-23T06:38:28.431Z,24.52
2023-01-23T06:41:19.830Z,21.35
2023-01-23T06:44:13.187Z,21.45
2023-01-23T06:47:01.361Z,22.23
2023-01-23T06:49:48.890Z,23.38
2023-01-23T06:52:36.522Z,20.35
2023-01-23T06:55:24.037Z,20.52
2023-01-23T06:58:11.482Z,22.05
2023-01-23T07:01:00.800Z,20.70
2023-01-23T07:04:14.652Z,18.77
2023-01-23T07:07:04.190Z,19.10
2023-01-23T07:09:52.973Z,20.92
2023-01-23T07:12:44.213Z,24.10
2023-01-23T07:15:32.059Z,24.88
2023-01-23T07:18:20.937Z,25.13
2023-01-23T07:21:09.416Z,22.63
2023-01-23T07:23:57.488Z,22.58
2023-01-23T07:26:45.037Z,23.02
2023-01-23T07:29:32.801Z,23.30
2023-01-23T07:32:20.720Z,23.88
2023-01-23T07:35:11.125Z,23.40
2023-01-23T07:37:58.989Z,24.50
2023-01-23T07:40:46.513Z,22.77
2023-01-23T07:43:34.154Z,25.67
2023-01-23T07:46:23.786Z,21.55
2023-01-23T07:49:11.513Z,20.90
2023-01-23T07:52:00.491Z,23.50
2023-01-23T07:54:48.603Z,23.63
2023-01-23T07:57:36.162Z,20.52
2023-01-23T08:00:27.191Z,21.88
2023-01-23T08:03:16.641Z,23.85
2023-01-23T08:06:04.384Z,23.00
2023-01-23T08:08:53.438Z,24.27
2023-01-23T08:11:41.566Z,22.33
2023-01-23T08:14:29.105Z,23.15
2023-01-23T08:17:16.799Z,25.08
2023-01-23T08:20:04.891Z,24.15
2023-01-23T08:22:52.425Z,23.98
2023-01-23T08:25:41.211Z,24.40
2023-01-23T08:28:29.013Z,23.58
2023-01-23T08:31:16.994Z,23.58
2023-01-23T08:34:04.872Z,25.42
2023-01-23T08:36:52.300Z,28.02
2023-01-23T08:39:39.808Z,26.38
2023-01-23T08:42:28.774Z,25.75
2023-01-23T08:45:16.553Z,25.65
2023-01-23T08:48:04.193Z,26.83
2023-01-23T08:50:52.982Z,25.00
2023-01-23T08:53:41.556Z,25.13
2023-01-23T08:56:29.635Z,26.15
2023-01-23T08:59:18.505Z,26.83
2023-01-23T09:02:05.952Z,27.25
2023-01-23T09:04:53.278Z,25.52
2023-01-23T09:07:40.990Z,25.70
2023-01-23T09:10:28.760Z,25.83
2023-01-23T09:13:16.942Z,25.77
2023-01-23T09:16:08.538Z,25.30
2023-01-23T09:18:56.848Z,27.00
2023-01-23T09:21:44.877Z,24.98
2023-01-23T09:24:32.318Z,26.13
2023-01-23T09:27:20.520Z,23.95
2023-01-23T09:30:09.601Z,24.27
2023-01-23T09:32:58.850Z,28.67
2023-01-23T09:35:46.336Z,25.67
2023-01-23T09:38:34.394Z,26.17
2023-01-23T09:41:28.135Z,25.13
2023-01-23T09:44:21.573Z,26.23
2023-01-23T09:47:15.668Z,25.52
2023-01-23T09:50:09.277Z,25.05
2023-01-23T09:53:02.693Z,25.88
2023-01-23T09:55:56.685Z,24.75
2023-01-23T09:58:53.358Z,26.95
2023-01-23T10:01:40.762Z,24.33
2023-01-23T10:04:28.680Z,29.55
2023-01-23T10:07:39.396Z,25.05
2023-01-23T10:10:57.391Z,26.88
2023-01-23T10:14:08.101Z,23.45
2023-01-23T10:17:08.301Z,23.80
2023-01-23T10:20:17.831Z,27.20
2023-01-23T10:23:18.231Z,26.52
2023-01-23T10:26:17.640Z,28.98
2023-01-23T10:29:14.484Z,26.42
2023-01-23T10:32:05.740Z,27.20
2023-01-23T10:35:08.129Z,28.13
2023-01-23T10:38:02.674Z,28.83
2023-01-23T10:41:08.938Z,29.13
2023-01-23T10:43:57.090Z,27.50
2023-01-23T10:46:52.255Z,27.63
2023-01-23T10:52:36.710Z,28.23
2023-01-23T10:55:31.411Z,28.98
2023-01-23T10:58:34.048Z,28.92
2023-01-23T11:01:27.974Z,27.63
2023-01-23T11:04:22.044Z,28.92
2023-01-23T11:07:16.258Z,29.15
2023-01-23T11:10:19.055Z,27.48
2023-01-23T11:13:06.452Z,26.83
2023-01-23T11:15:56.097Z,28.70
2023-01-23T11:18:54.464Z,29.77
2023-01-23T11:21:53.892Z,30.15
2023-01-23T11:24:41.831Z,29.02
2023-01-23T11:27:31.498Z,27.23
2023-01-23T11:30:48.450Z,25.90
2023-01-23T11:33:42.730Z,26.02
2023-01-23T11:36:46.863Z,26.55
2023-01-23T11:39:49.900Z,29.13
2023-01-23T11:42:41.382Z,29.48
2023-01-23T11:45:41.488Z,26.35
2023-01-23T11:48:52.626Z,28.38
2023-01-23T11:51:48.980Z,26.25
2023-01-23T11:54:52.715Z,25.75
2023-01-23T11:57:48.537Z,24.23
2023-01-23T12:00:43.077Z,27.05
2023-01-23T12:04:15.275Z,28.83
2023-01-23T12:07:17.282Z,26.17
2023-01-23T12:10:19.934Z,26.67
2023-01-23T12:13:22.464Z,28.75
2023-01-23T12:16:18.515Z,26.92
2023-01-23T12:19:28.671Z,25.33
2023-01-23T12:22:20.391Z,24.75
2023-01-23T12:25:22.671Z,26.02
2023-01-23T12:28:24.066Z,24.90
2023-01-23T12:31:29.181Z,24.73
2023-01-23T12:34:34.317Z,23.08
2023-01-23T12:37:50.288Z,26.92
2023-01-23T12:40:44.699Z,23.70
2023-01-23T12:43:39.461Z,23.70
2023-01-23T12:46:34.117Z,25.27
2023-01-23T12:49:28.211Z,23.05
2023-01-23T12:52:21.585Z,21.48
2023-01-23T12:55:19.219Z,26.73
2023-01-23T12:58:09.591Z,23.58
2023-01-23T13:01:08.934Z,23.65
2023-01-23T13:04:16.884Z,21.83
2023-01-23T13:07:14.895Z,25.70
2023-01-23T13:10:23.557Z,23.20
2023-01-23T13:13:11.313Z,25.75
2023-01-23T13:16:12.151Z,25.42
2023-01-23T13:19:19.324Z,28.13
2023-01-23T13:22:26.987Z,28.80
2023-01-23T13:25:18.310Z,28.75
2023-01-23T13:28:44.031Z,26.65
2023-01-23T13:31:41.615Z,26.88
2023-01-23T13:37:52.256Z,26.02
2023-01-23T13:41:01.679Z,25.20
2023-01-23T13:43:54.158Z,26.10
2023-01-23T14:22:57.258Z,29.48
2023-01-23T14:25:44.856Z,27.27
2023-01-23T14:28:32.727Z,29.70
2023-01-23T14:31:25.835Z,30.17
2023-01-23T14:34:18.899Z,29.92
2023-01-23T14:37:08.836Z,32.22
2023-01-23T14:40:11.654Z,32.58
2023-01-23T14:43:03.545Z,31.33
2023-01-23T14:45:58.150Z,36.38
2023-01-23T14:48:52.481Z,39.80
2023-01-23T14:51:39.913Z,30.00
2023-01-23T14:54:32.539Z,30.95
2023-01-23T14:57:22.224Z,30.25
2023-01-23T15:00:19.300Z,30.02
2023-01-23T15:06:00.498Z,31.33
2023-01-23T15:08:49.374Z,29.00
2023-01-23T15:11:36.852Z,30.35
2023-01-23T15:14:27.751Z,31.65
2023-01-23T15:17:18.124Z,31.17
2023-01-23T15:20:06.507Z,32.08
2023-01-23T15:22:55.507Z,30.08
2023-01-23T15:25:43.000Z,30.95
2023-01-23T15:28:32.176Z,33.20
2023-01-23T15:31:29.308Z,30.67
2023-01-23T15:34:22.846Z,32.83
2023-01-23T15:37:23.114Z,34.72
2023-01-23T15:40:20.704Z,34.80
2023-01-23T15:43:13.336Z,33.95
2023-01-23T15:46:00.780Z,33.75
2023-01-23T15:48:48.137Z,31.88
2023-01-23T15:51:36.264Z,35.97
2023-01-23T15:54:27.425Z,34.92
2023-01-23T15:57:16.318Z,32.92
2023-01-23T16:00:14.656Z,34.67
2023-01-23T16:03:02.265Z,33.67
2023-01-23T16:05:49.988Z,32.97
2023-01-23T16:08:37.368Z,32.25
2023-01-23T16:11:25.676Z,33.25
2023-01-23T16:14:17.613Z,33.72
2023-01-23T16:17:16.237Z,33.90
2023-01-23T16:20:05.654Z,35.38
2023-01-23T16:22:56.661Z,37.03
2023-01-23T16:25:46.324Z,37.78
2023-01-23T16:28:34.346Z,33.90
2023-01-23T16:31:24.265Z,33.63
2023-01-23T16:34:12.004Z,34.72
2023-01-23T16:37:01.798Z,33.92
2023-01-23T16:39:49.400Z,35.95
2023-01-23T16:42:37.127Z,33.53
2023-01-23T16:45:26.624Z,34.05
2023-01-23T16:48:21.809Z,33.67
2023-01-23T16:51:19.990Z,34.70
2023-01-23T16:54:18.341Z,33.83
2023-01-23T16:57:06.465Z,36.47
2023-01-23T16:59:56.418Z,36.85
2023-01-23T17:02:45.976Z,34.10
2023-01-23T17:05:35.088Z,36.28
2023-01-23T17:08:24.864Z,33.65
2023-01-23T17:11:19.803Z,35.17
2023-01-23T17:14:14.087Z,34.55
2023-01-23T17:17:06.167Z,37.17
2023-01-23T17:19:55.187Z,34.55
2023-01-23T17:22:44.860Z,36.45
2023-01-23T17:25:32.870Z,36.20
2023-01-23T17:28:21.839Z,40.30
2023-01-23T17:31:15.132Z,35.75
2023-01-23T17:34:05.260Z,37.78
2023-01-23T17:36:54.507Z,35.67
2023-01-23T17:39:43.695Z,34.83
2023-01-23T17:42:31.663Z,35.95
2023-01-23T17:45:23.213Z,37.35
2023-01-23T17:48:15.193Z,36.70
2023-01-23T17:51:03.069Z,34.47
2023-01-23T17:53:50.965Z,35.67
2023-01-23T17:56:39.877Z,35.03
2023-01-23T17:59:27.632Z,35.47
2023-01-23T18:02:28.155Z,35.03
2023-01-23T18:05:16.232Z,34.70
2023-01-23T18:08:03.899Z,37.40
2023-01-23T18:10:55.366Z,34.33
2023-01-23T18:13:51.837Z,34.47
2023-01-23T18:16:42.952Z,36.97
2023-01-23T18:19:31.517Z,40.25
2023-01-23T18:22:19.742Z,37.90
2023-01-23T18:25:09.198Z,35.33
2023-01-23T18:27:58.361Z,33.60
2023-01-23T18:30:56.713Z,34.72
2023-01-23T18:34:02.608Z,35.20
2023-01-23T18:37:02.604Z,33.10
2023-01-23T18:40:00.660Z,35.85
2023-01-23T18:42:57.642Z,34.20
2023-01-23T18:51:35.654Z,32.15
2023-01-23T18:54:32.083Z,34.90
2023-01-23T18:57:38.111Z,33.17
2023-01-23T19:00:32.219Z,34.92
2023-01-23T19:03:23.369Z,34.35
2023-01-23T19:06:20.163Z,34.42
2023-01-23T19:09:13.133Z,36.53
2023-01-23T19:12:11.628Z,34.40
2023-01-23T19:15:21.457Z,33.70
2023-01-23T19:18:28.733Z,34.15
2023-01-23T19:21:28.891Z,33.20
2023-01-23T19:24:19.787Z,33.58
2023-01-23T19:27:16.863Z,32.05
2023-01-23T19:30:05.641Z,29.50
2023-01-23T19:32:53.672Z,33.55
2023-01-23T19:35:41.274Z,30.35
2023-01-23T19:38:30.029Z,31.42
2023-01-23T19:41:20.947Z,32.30
2023-01-23T19:44:08.769Z,31.40
2023-01-23T19:46:56.275Z,34.97
2023-01-23T19:49:43.731Z,31.08
2023-01-23T19:52:31.228Z,33.15
2023-01-23T19:55:25.685Z,31.23
2023-01-23T19:58:13.356Z,33.10
2023-01-23T20:01:00.865Z,32.50
2023-01-23T20:03:48.220Z,29.65
2023-01-23T20:06:38.866Z,34.95
2023-01-23T20:09:26.429Z,31.58
2023-01-23T20:12:15.365Z,32.25
2023-01-23T20:15:03.399Z,31.40
2023-01-23T20:17:51.180Z,29.88
2023-01-23T20:20:38.657Z,31.05
2023-01-23T20:23:25.927Z,33.13
2023-01-23T20:26:13.544Z,34.20
2023-01-23T20:29:03.959Z,30.90
2023-01-23T20:31:52.154Z,32.65
2023-01-23T20:34:39.846Z,30.42
2023-01-23T20:37:28.948Z,30.40
2023-01-23T20:40:16.575Z,34.13
2023-01-23T20:43:03.971Z,32.17
2023-01-23T20:45:54.247Z,31.65
2023-01-23T20:48:44.267Z,33.17
2023-01-23T20:51:31.636Z,31.55
2023-01-23T20:54:19.105Z,33.53
2023-01-23T20:57:06.694Z,33.35
2023-01-23T20:59:53.357Z,34.05
2023-01-23T21:02:42.255Z,33.08
2023-01-23T21:05:29.562Z,33.72
2023-01-23T21:08:18.124Z,32.50
2023-01-23T21:11:07.056Z,32.88
2023-01-23T21:13:54.661Z,34.05
2023-01-23T21:16:42.343Z,32.05
2023-01-23T21:19:31.340Z,31.02
2023-01-23T21:22:19.311Z,32.90
2023-01-23T21:25:07.911Z,32.05
2023-01-23T21:27:55.580Z,33.40
2023-01-23T21:30:43.291Z,31.55
2023-01-23T21:33:31.217Z,32.13
2023-01-23T21:36:22.074Z,33.78
2023-01-23T21:39:11.869Z,33.13
2023-01-23T21:41:59.565Z,32.25
2023-01-23T21:44:48.153Z,31.42
2023-01-23T21:47:35.818Z,26.88
2023-01-23T21:50:23.256Z,28.38
2023-01-23T21:53:11.943Z,27.65
2023-01-23T21:55:59.606Z,25.50
2023-01-23T21:58:48.121Z,29.65
2023-01-23T22:01:42.873Z,30.98
2023-01-23T22:04:32.742Z,28.42
2023-01-23T22:07:20.635Z,27.65
2023-01-23T22:10:11.215Z,30.30
2023-01-23T22:12:59.449Z,28.33
2023-01-23T22:15:47.011Z,26.52
2023-01-23T22:18:35.217Z,34.90
2023-01-23T22:21:22.710Z,32.55
2023-01-23T22:24:10.504Z,30.00
2023-01-23T22:27:00.062Z,27.05
2023-01-23T22:29:47.842Z,29.38
2023-01-23T22:32:35.378Z,28.45
2023-01-23T22:35:23.053Z,30.70
2023-01-23T22:38:12.283Z,33.40
2023-01-23T22:41:00.678Z,31.02
2023-01-23T22:43:54.352Z,30.35
2023-01-23T22:46:42.208Z,31.98
2023-01-23T22:49:29.772Z,32.42
2023-01-23T22:52:17.384Z,33.72
2023-01-23T22:55:05.169Z,30.58
2023-01-23T22:57:53.329Z,30.77
2023-01-23T23:00:44.467Z,28.42
2023-01-23T23:03:32.811Z,33.47
2023-01-23T23:06:20.674Z,31.95
2023-01-23T23:09:11.629Z,32.35
2023-01-23T23:11:59.011Z,34.95
2023-01-23T23:14:46.798Z,32.97
2023-01-23T23:17:35.969Z,34.20
2023-01-23T23:20:23.621Z,33.78
2023-01-23T23:23:11.330Z,34.15
2023-01-23T23:25:59.424Z,34.53
2023-01-23T23:28:46.754Z,32.80
2023-01-23T23:31:34.301Z,37.92
2023-01-23T23:34:23.564Z,37.75
2023-01-23T23:37:11.264Z,33.33
2023-01-23T23:39:58.909Z,37.53
2023-01-23T23:42:48.390Z,37.38
2023-01-23T23:45:36.097Z,33.28
2023-01-23T23:48:24.172Z,36.33
2023-01-23T23:51:15.166Z,35.30
2023-01-23T23:54:02.940Z,35.22
2023-01-23T23:56:50.475Z,35.65
2023-01-23T23:59:37.877Z,32.55
